Flight Track Log - Related Links

Times and Time Zones

All times are in EDT time to prevent confusion due to time zone crossing. See the DAL6201 flight status page for this flight to view local times or setup timezone preferences in your user account.

Time Position Orientation Groundspeed Altitude Reporting Facility
EDT Latitude Longitude Course Direction KTS MPH feet Rate Location/Type
Wed 07:07:43 PM 40.5108 -80.2800 80° East 163 188 2,400  Level Cleveland Center
Wed 07:08:43 PM 40.5586 -80.2525 24° Northeast 177 204 4,100 1,750 Climbing Cleveland Center
Wed 07:09:43 PM 40.5814 -80.1731 69° East 186 214 5,900 2,400 Climbing Cleveland Center
Wed 07:10:43 PM 40.6039 -80.0717 74° East 219 252 8,900 2,450 Climbing Cleveland Center
Wed 07:11:43 PM 40.6178 -79.9458 82° East 286 329 10,800 1,750 Climbing Cleveland Center
Wed 07:12:43 PM 40.6317 -79.8061 82° East 333 383 12,400 1,800 Climbing Cleveland Center
Wed 07:13:00 PM 40.5501 -79.3829 80° East  Level Estimated
Wed 07:13:43 PM 40.6408 -79.6611 85° East 374 430 14,400  Level Cleveland Center
Wed 07:14:43 PM 40.6542 -79.5075 83° East 404 465 16,400 1,850 Climbing Cleveland Center
Wed 07:15:43 PM 40.6631 -79.3706 85° East 416 479 18,100 1,300 Climbing Cleveland Center
Wed 07:16:43 PM 40.6739 -79.2197 85° East 416 479 19,000 1,100 Climbing Cleveland Center
Wed 07:17:43 PM 40.6847 -79.0689 85° East 416 479 20,300 1,350 Climbing Cleveland Center
Wed 07:18:43 PM 40.6969 -78.8989 85° East 421 484 21,700 1,450 Climbing Cleveland Center
Wed 07:19:43 PM 40.7069 -78.7397 85° East 426 490 23,200 1,331 Climbing Cleveland Center
Wed 07:22:00 PM 40.6978 -78.5635 82° East  Level FlightAware Approximate
Wed 07:22:42 PM 40.7678 -78.2686 82° East 438 504 27,000  Level New York Center
Wed 07:23:43 PM 40.8386 -78.1364 55° Northeast 427 491 28,200 1,017 Climbing New York Center
Wed 07:24:40 PM 40.9072 -78.0008 56° Northeast 432 497 29,000 403 Climbing New York Center
Wed 07:25:42 PM 40.9303 -77.8275 80° East 450 518 29,000  Level New York Center
Wed 07:26:42 PM 40.9450 -77.6503 84° East 469 540 29,000  Level New York Center
Wed 07:27:42 PM 40.9592 -77.4731 84° East 474 545 29,000  Level New York Center
Wed 07:28:41 PM 40.9606 -77.2972 89° East 482 555 29,000 -1,000 Level New York Center
Wed 07:29:42 PM 40.9536 -77.1208 93° East 476 548 27,000 -1,820 Descending New York Center
Wed 07:30:43 PM 40.9461 -76.9469 93° East 476 548 25,300 -1,678 Descending New York Center
Wed 07:31:40 PM 40.9383 -76.7758 93° East 481 554 23,700 -1,627 Descending New York Center
Wed 07:32:41 PM 40.9319 -76.6078 93° East 475 547 22,100 -1,537 Descending New York Center
Wed 07:33:41 PM 40.9256 -76.4397 93° East 465 535 20,600 -1,525 Descending New York Center
Wed 07:34:43 PM 40.9206 -76.2825 92° East 449 517 19,000 -787 Descending New York Center
Wed 07:35:43 PM 40.8942 -76.1294 103° East 431 496 19,000 -966 Level New York Center
Wed 07:36:41 PM 40.8572 -75.9811 108° East 426 490 17,100 -2,441 Descending New York Center
Wed 07:37:41 PM 40.8233 -75.8497 109° East 426 490 14,200 -2,033 Descending New York Center
Wed 07:38:42 PM 40.7861 -75.6933 107° East 414 476 13,000 -590 Descending New York Center
Wed 07:39:43 PM 40.7522 -75.5567 108° East 409 471 13,000  Level New York Center
Wed 07:40:41 PM 40.7181 -75.4175 108° East 404 465 13,000  Level New York Center
Wed 07:41:41 PM 40.6917 -75.2897 105° East 399 459 13,000 -639 Level New York Center
Wed 07:42:43 PM 40.6578 -75.1425 107° East 388 447 11,700 -1,400 Descending New York Center
Wed 07:43:41 PM 40.5864 -75.0394 132° Southeast 380 437 10,200 -850 Descending New York Center
Wed 07:44:43 PM 40.5467 -74.9333 116° Southeast 367 422 10,000 -100 Descending New York Center
Wed 07:45:41 PM 40.5092 -74.8081 111° Southeast 342 394 10,000  Level New York Center
Wed 07:46:06 PM 40.5000 -74.7667 106° East 334 384 10,000  Level New York TRACON
Wed 07:47:06 PM 40.4667 -74.6500 111° Southeast 329 379 10,000 -300 Level New York TRACON
Wed 07:48:06 PM 40.4333 -74.5333 111° Southeast 294 338 9,400 -905 Descending New York TRACON
Wed 07:49:12 PM 40.4500 -74.4500 75° East 260 299 8,100 -1,000 Descending New York TRACON
Wed 07:50:12 PM 40.4833 -74.3500 66° East 257 296 7,300 -550 Descending New York TRACON
Wed 07:51:12 PM 40.5000 -74.2667 75° East 254 292 7,000 -300 Descending New York TRACON
Wed 07:52:12 PM 40.4833 -74.1833 105° East 229 264 6,700 -900 Descending New York TRACON
Wed 07:53:12 PM 40.5000 -74.1167 72° East 214 246 5,200 -1,350 Descending New York TRACON
Wed 07:54:12 PM 40.5333 -74.0833 37° Northeast 199 229 4,000 -600 Descending New York TRACON
Wed 07:55:12 PM 40.5833 -74.0333 37° Northeast 194 223 4,000 -238 Level New York TRACON
Wed 07:56:18 PM 40.6333 -74.0000 27° Northeast 195 224 3,500 -550 Descending New York TRACON
Wed 07:57:12 PM 40.6667 -73.9667 37° Northeast 184 212 2,900 -526 Descending New York TRACON
Wed 07:58:12 PM 40.7167 -73.9333 27° Northeast 174 200 2,500 -650 Descending New York TRACON
Wed 07:59:12 PM 40.7333 -73.8667 72° East 158 182 1,600 -900 Descending New York TRACON
Wed 08:00:12 PM 40.7500 -73.8333 57° Northeast 146 168 700 -900 Descending New York TRACON
Wed 08:02:00 PM 40.7667 -73.8667 30° Northeast  Level FlightAware Approximate
Wed 08:09:00 PM 40.7772 -73.8726 30° Northeast  Level Estimated
Wed 08:10:00 PM 40.7772 -73.8726 30° Northeast  Level Estimated

Login

Don't have an account? Register now (free) for customized features, flight alerts, and more!